Time;durP1;ratioP1;P1;durP2;ratioP2;P2;SDS_P1;SDS_P2;PMS_P1;PMS_P2;Temp;Humidity;BMP_temperature;BMP_pressure;BME280_temperature;BME280_humidity;BME280_pressure;Samples;Min_cycle;Max_cycle;Signal;HPM_P1;HPM_P2
2021/10/28 00:13:11;;;;;;;0.20;0.20;;;;;;;10.91;100.00;101443.00;5070090;28;20428;-80
2021/10/28 00:15:53;;;;;;;0.30;0.30;;;;;;;10.98;100.00;101447.13;5072093;28;20055;-81
2021/10/28 00:18:39;;;;;;;0.20;0.20;;;;;;;10.97;100.00;101445.50;5072450;28;20044;-80
2021/10/28 00:21:12;;;;;;;0.20;0.20;;;;;;;10.86;100.00;101444.59;5069115;28;20051;-79
2021/10/28 00:23:48;;;;;;;0.20;0.20;;;;;;;10.82;100.00;101448.94;5060440;28;20068;-80
2021/10/28 00:26:16;;;;;;;0.20;0.20;;;;;;;10.74;100.00;101440.44;5070550;28;20056;-80
2021/10/28 00:28:56;;;;;;;0.28;0.28;;;;;;;10.62;100.00;101457.81;5069566;28;20048;-79
2021/10/28 00:31:32;;;;;;;0.20;0.20;;;;;;;10.55;100.00;101451.75;5059763;28;20053;-79
2021/10/28 00:34:07;;;;;;;0.20;0.20;;;;;;;10.45;100.00;101447.03;5068719;28;20052;-80
2021/10/28 00:36:44;;;;;;;0.20;0.20;;;;;;;10.49;100.00;101453.59;5072377;28;20067;-79
2021/10/28 00:39:12;;;;;;;0.20;0.20;;;;;;;10.44;100.00;101450.84;5086912;28;20055;-82
2021/10/28 00:41:40;;;;;;;0.20;0.20;;;;;;;10.37;100.00;101453.78;5066914;28;20053;-80
2021/10/28 00:44:11;;;;;;;0.20;0.20;;;;;;;10.29;100.00;101458.84;5060097;28;20045;-79
2021/10/28 00:46:45;;;;;;;0.20;0.20;;;;;;;10.23;100.00;101451.72;5069534;28;20052;-78
2021/10/28 00:49:18;;;;;;;0.20;0.20;;;;;;;10.32;100.00;101456.44;5060433;28;20056;-80
2021/10/28 00:51:55;;;;;;;0.25;0.25;;;;;;;10.21;100.00;101454.72;5057685;28;20053;-80
2021/10/28 00:54:29;;;;;;;0.20;0.20;;;;;;;10.23;100.00;101449.00;5061945;28;20040;-80
2021/10/28 00:57:05;;;;;;;0.20;0.20;;;;;;;10.05;100.00;101442.84;5065576;28;20416;-80
2021/10/28 00:59:39;;;;;;;0.25;0.25;;;;;;;9.99;100.00;101452.06;5060848;28;20404;-80
2021/10/28 01:02:14;;;;;;;0.20;0.20;;;;;;;9.99;100.00;101443.91;5070158;28;20392;-80
2021/10/28 01:04:47;;;;;;;0.20;0.20;;;;;;;9.84;100.00;101456.25;5070542;28;20370;-81
2021/10/28 01:07:15;;;;;;;0.20;0.20;;;;;;;9.83;100.00;101454.63;5070404;28;20059;-81
2021/10/28 01:09:44;;;;;;;0.20;0.20;;;;;;;9.79;100.00;101461.66;5065954;28;20374;-80
2021/10/28 01:12:17;;;;;;;0.20;0.20;;;;;;;9.63;100.00;101443.53;5069994;28;20523;-80
2021/10/28 01:14:52;;;;;;;0.30;0.30;;;;;;;9.67;100.00;101464.50;5071321;28;20048;-80
2021/10/28 01:17:20;;;;;;;0.30;0.30;;;;;;;9.70;100.00;101458.53;5071483;28;20451;-79
2021/10/28 01:19:51;;;;;;;0.30;0.30;;;;;;;9.64;100.00;101465.00;5070333;28;20374;-80
2021/10/28 01:22:25;;;;;;;0.20;0.20;;;;;;;9.69;100.00;101456.91;5063764;28;20064;-80
2021/10/28 01:24:58;;;;;;;0.20;0.20;;;;;;;9.61;100.00;101459.25;5063998;28;20052;-80
2021/10/28 01:27:31;;;;;;;0.20;0.20;;;;;;;9.47;100.00;101456.94;5070565;28;20064;-80
2021/10/28 01:30:06;;;;;;;0.20;0.20;;;;;;;9.41;100.00;101454.41;5072294;28;20689;-79
2021/10/28 01:32:40;;;;;;;0.20;0.20;;;;;;;9.43;100.00;101457.69;5068283;28;20045;-80
2021/10/28 01:35:12;;;;;;;0.20;0.20;;;;;;;9.45;100.00;101447.38;5087626;28;20075;-79
2021/10/28 01:37:45;;;;;;;0.30;0.30;;;;;;;9.43;100.00;101453.09;5071348;28;20045;-79
2021/10/28 01:40:15;;;;;;;0.20;0.20;;;;;;;9.49;100.00;101456.69;5068210;28;20410;-81
2021/10/28 01:42:50;;;;;;;0.20;0.20;;;;;;;9.52;100.00;101453.44;5071488;28;20040;-79
2021/10/28 01:45:19;;;;;;;0.25;0.25;;;;;;;9.54;100.00;101451.28;5067939;28;20064;-80
2021/10/28 01:47:52;;;;;;;0.30;0.30;;;;;;;9.56;100.00;101451.06;5069483;28;20543;-80
2021/10/28 01:50:28;;;;;;;0.20;0.20;;;;;;;9.52;100.00;101448.81;5065053;28;20128;-80
2021/10/28 01:53:01;;;;;;;0.20;0.20;;;;;;;9.47;100.00;101447.94;5069553;28;20523;-81
2021/10/28 01:55:35;;;;;;;0.30;0.30;;;;;;;9.50;100.00;101448.28;5069317;28;20041;-79
2021/10/28 01:58:10;;;;;;;0.20;0.20;;;;;;;9.45;100.00;101452.81;5077426;28;20056;-79
2021/10/28 02:00:46;;;;;;;0.20;0.20;;;;;;;9.46;100.00;101444.41;5071022;28;20072;-81
2021/10/28 02:03:19;;;;;;;0.20;0.20;;;;;;;9.44;100.00;101440.31;5086721;28;20489;-80
2021/10/28 02:05:56;;;;;;;0.30;0.30;;;;;;;9.47;100.00;101446.06;5074449;28;20040;-79
2021/10/28 02:08:29;;;;;;;0.28;0.28;;;;;;;9.46;100.00;101446.28;5072480;28;20897;-79
2021/10/28 02:11:03;;;;;;;0.30;0.30;;;;;;;9.39;100.00;101437.53;5089975;28;20060;-80
2021/10/28 02:13:36;;;;;;;0.20;0.20;;;;;;;9.30;100.00;101429.81;5074173;28;20068;-81
2021/10/28 02:16:09;;;;;;;0.20;0.20;;;;;;;9.29;100.00;101435.50;5064152;28;20052;-80
2021/10/28 02:18:42;;;;;;;0.20;0.20;;;;;;;9.16;100.00;101437.53;5073754;28;20424;-79
2021/10/28 02:21:17;;;;;;;0.20;0.20;;;;;;;9.01;100.00;101431.88;5074164;28;20044;-80
2021/10/28 02:23:50;;;;;;;0.20;0.20;;;;;;;8.98;100.00;101435.91;5074033;28;20044;-80
2021/10/28 02:26:24;;;;;;;0.20;0.20;;;;;;;8.90;100.00;101439.06;5054084;28;20052;-79
2021/10/28 02:28:58;;;;;;;0.20;0.20;;;;;;;8.88;100.00;101441.22;5075119;28;20040;-79
2021/10/28 02:31:32;;;;;;;0.30;0.30;;;;;;;8.89;100.00;101439.31;5072729;28;20493;-79
2021/10/28 02:34:05;;;;;;;0.20;0.20;;;;;;;8.87;100.00;101439.56;5074218;28;20385;-79
2021/10/28 02:36:34;;;;;;;0.20;0.20;;;;;;;8.88;100.00;101438.50;5071928;28;20041;-80
2021/10/28 02:39:08;;;;;;;0.30;0.30;;;;;;;8.82;100.00;101440.34;5068336;28;20442;-80
2021/10/28 02:41:42;;;;;;;0.20;0.20;;;;;;;8.81;100.00;101443.25;5066573;28;20769;-80
2021/10/28 02:44:15;;;;;;;0.20;0.20;;;;;;;8.80;100.00;101441.66;5072125;28;20041;-79
2021/10/28 02:46:48;;;;;;;0.28;0.28;;;;;;;8.92;100.00;101450.50;5089539;28;20059;-80
2021/10/28 02:49:22;;;;;;;0.20;0.20;;;;;;;8.88;100.00;101445.81;5088965;28;20044;-79
2021/10/28 02:51:51;;;;;;;0.20;0.20;;;;;;;8.92;100.00;101445.09;5072743;28;20048;-79
2021/10/28 02:54:25;;;;;;;0.20;0.20;;;;;;;8.99;100.00;101439.44;5062295;28;20369;-81
2021/10/28 02:56:58;;;;;;;0.20;0.20;;;;;;;8.97;100.00;101434.28;5067539;28;20481;-79
2021/10/28 02:59:31;;;;;;;0.30;0.30;;;;;;;8.93;100.00;101424.97;5074240;28;20063;-79
2021/10/28 03:02:05;;;;;;;0.30;0.30;;;;;;;9.09;100.00;101427.94;5058257;28;20403;-80
2021/10/28 03:04:39;;;;;;;0.30;0.30;;;;;;;9.10;100.00;101429.56;5071825;28;20044;-80
2021/10/28 03:07:13;;;;;;;0.20;0.20;;;;;;;9.07;100.00;101428.16;5070699;28;20048;-80
2021/10/28 03:09:46;;;;;;;0.30;0.30;;;;;;;9.02;100.00;101428.09;5069424;28;20048;-79
2021/10/28 03:12:19;;;;;;;0.20;0.20;;;;;;;9.07;100.00;101430.88;5064486;28;20048;-80
2021/10/28 03:14:55;;;;;;;0.20;0.20;;;;;;;9.07;100.00;101430.06;5063490;28;20064;-81
2021/10/28 03:17:36;;;;;;;0.20;0.20;;;;;;;9.07;100.00;101430.88;5069798;28;20045;-79
2021/10/28 03:25:49;;;;;;;0.30;0.30;;;;;;;8.85;100.00;101428.13;5061461;28;20040;-81
2021/10/28 03:28:22;;;;;;;0.30;0.30;;;;;;;8.79;100.00;101427.22;5063231;28;20064;-80
2021/10/28 03:30:56;;;;;;;0.30;0.30;;;;;;;8.76;100.00;101426.94;5075019;28;20047;-80
2021/10/28 03:33:32;;;;;;;0.20;0.20;;;;;;;8.74;100.00;101418.19;5071862;28;20066;-80
2021/10/28 03:36:10;;;;;;;0.20;0.20;;;;;;;8.69;100.00;101427.09;5070977;28;20048;-79
2021/10/28 03:38:53;;;;;;;0.20;0.20;;;;;;;8.66;100.00;101425.69;5071296;28;20044;-80
2021/10/28 03:47:49;;;;;;;0.25;0.25;;;;;;;8.44;100.00;101414.75;4993605;28;20065;-80
2021/10/28 03:59:43;;;;;;;0.20;0.20;;;;;;;8.18;100.00;101411.63;5030546;28;20045;-80
2021/10/28 04:05:31;;;;;;;0.25;0.25;;;;;;;8.09;100.00;101420.41;5070859;28;20473;-80
2021/10/28 04:08:22;;;;;;;0.20;0.20;;;;;;;8.04;100.00;101414.88;5063920;28;20047;-81
2021/10/28 04:31:07;;;;;;;0.20;0.20;;;;;;;7.71;100.00;101413.78;5069732;28;20415;-79
2021/10/28 04:33:42;;;;;;;0.20;0.20;;;;;;;7.64;100.00;101409.31;5070282;28;20063;-79
2021/10/28 04:36:15;;;;;;;0.28;0.28;;;;;;;7.61;100.00;101412.53;5058739;28;20465;-81
2021/10/28 04:38:48;;;;;;;0.20;0.20;;;;;;;7.61;100.00;101414.38;5070301;28;20045;-79
2021/10/28 04:41:21;;;;;;;0.20;0.20;;;;;;;7.62;100.00;101422.31;5066752;28;20474;-81
2021/10/28 04:43:50;;;;;;;0.20;0.20;;;;;;;7.59;100.00;101420.06;5070512;28;20064;-79
2021/10/28 04:46:25;;;;;;;0.20;0.20;;;;;;;7.59;100.00;101416.53;5068802;28;20056;-79
2021/10/28 04:48:58;;;;;;;0.22;0.22;;;;;;;7.51;100.00;101414.19;5083413;28;20066;-82
2021/10/28 04:51:26;;;;;;;0.30;0.30;;;;;;;7.59;100.00;101421.94;5080355;28;20056;-80
2021/10/28 04:54:00;;;;;;;0.25;0.25;;;;;;;7.53;100.00;101428.34;5070522;28;20416;-80
2021/10/28 04:56:33;;;;;;;0.20;0.20;;;;;;;7.51;100.00;101422.31;5069372;28;20053;-82
2021/10/28 04:59:06;;;;;;;0.30;0.30;;;;;;;7.44;100.00;101420.59;5065294;28;20052;-81
2021/10/28 05:01:41;;;;;;;0.20;0.20;;;;;;;7.40;100.00;101416.72;5066879;28;20807;-82
2021/10/28 05:04:14;;;;;;;0.20;0.20;;;;;;;7.40;100.00;101415.88;5072002;28;20056;-81
2021/10/28 05:06:48;;;;;;;0.20;0.20;;;;;;;7.36;100.00;101412.84;5064589;28;20428;-82
2021/10/28 05:09:25;;;;;;;0.20;0.20;;;;;;;7.36;100.00;101414.72;5059483;28;20053;-81
2021/10/28 05:11:59;;;;;;;0.30;0.30;;;;;;;7.40;100.00;101416.72;5062730;28;20048;-81
2021/10/28 05:14:32;;;;;;;0.20;0.20;;;;;;;7.34;100.00;101406.84;5070779;28;20369;-82
2021/10/28 05:17:06;;;;;;;0.20;0.20;;;;;;;7.34;100.00;101406.84;5064666;28;20056;-81
2021/10/28 05:19:39;;;;;;;0.20;0.20;;;;;;;7.31;100.00;101407.31;5071650;28;20039;-81
2021/10/28 05:22:09;;;;;;;0.20;0.20;;;;;;;7.28;100.00;101411.31;5069712;28;20059;-81
2021/10/28 05:24:42;;;;;;;0.20;0.20;;;;;;;7.25;100.00;101409.09;5070135;28;20057;-81
2021/10/28 05:27:18;;;;;;;0.30;0.30;;;;;;;7.15;100.00;101401.59;5063559;28;20063;-81
2021/10/28 05:29:52;;;;;;;0.20;0.20;;;;;;;7.20;100.00;101405.47;5066613;28;20049;-82
2021/10/28 05:32:26;;;;;;;0.20;0.20;;;;;;;7.10;100.00;101395.25;5063303;28;20428;-82
2021/10/28 05:35:00;;;;;;;0.30;0.30;;;;;;;7.13;100.00;101411.84;5067709;28;20052;-81
2021/10/28 05:37:33;;;;;;;0.20;0.20;;;;;;;7.10;100.00;101408.78;5073372;28;20044;-82
2021/10/28 05:40:03;;;;;;;0.30;0.30;;;;;;;7.10;100.00;101403.38;5070900;28;20045;-81
2021/10/28 05:42:38;;;;;;;0.20;0.20;;;;;;;7.07;100.00;101403.84;5059055;28;20063;-80
2021/10/28 05:45:11;;;;;;;0.28;0.28;;;;;;;7.10;100.00;101406.09;5074130;28;20492;-80
2021/10/28 05:47:48;;;;;;;0.20;0.20;;;;;;;6.98;100.00;101408.81;5070651;28;20470;-80
2021/10/28 05:50:45;;;;;;;0.20;0.20;;;;;;;6.98;100.00;101406.91;5074193;28;20063;-81
2021/10/28 05:53:19;;;;;;;0.25;0.22;;;;;;;6.91;100.00;101406.22;5076687;28;20048;-82
2021/10/28 05:55:48;;;;;;;0.20;0.20;;;;;;;6.90;100.00;101406.47;5073883;28;20045;-81
2021/10/28 05:58:22;;;;;;;0.30;0.30;;;;;;;6.89;100.00;101408.34;5073901;28;20051;-80
2021/10/28 06:00:50;;;;;;;0.20;0.20;;;;;;;6.84;100.00;101408.25;5065447;28;20068;-80
2021/10/28 06:03:25;;;;;;;0.20;0.20;;;;;;;6.81;100.00;101406.81;5074160;28;20409;-81
2021/10/28 06:05:53;;;;;;;0.28;0.28;;;;;;;6.85;100.00;101406.34;5068086;28;20048;-80
2021/10/28 06:08:21;;;;;;;0.30;0.30;;;;;;;6.76;100.00;101395.88;5074196;28;20404;-80
2021/10/28 06:10:56;;;;;;;0.20;0.20;;;;;;;6.81;100.00;101406.81;5065970;28;20056;-81
2021/10/28 06:13:29;;;;;;;0.20;0.20;;;;;;;6.85;100.00;101406.34;5070471;28;20057;-82
2021/10/28 06:16:05;;;;;;;0.20;0.20;;;;;;;6.79;100.00;101405.41;5071588;28;20994;-82
2021/10/28 06:18:41;;;;;;;0.20;0.20;;;;;;;6.77;100.00;101411.06;5071240;28;20056;-80
2021/10/28 06:21:40;;;;;;;0.20;0.20;;;;;;;6.79;100.00;101418.94;5070865;28;20033;-81
2021/10/28 06:24:13;;;;;;;0.20;0.20;;;;;;;6.74;100.00;101414.25;5072458;28;20040;-81
2021/10/28 06:26:46;;;;;;;0.30;0.30;;;;;;;6.80;100.00;101412.47;5075222;28;20052;-81
2021/10/28 06:29:14;;;;;;;0.20;0.20;;;;;;;6.73;100.00;101404.47;5073841;28;20048;-81
2021/10/28 06:31:49;;;;;;;0.25;0.25;;;;;;;6.76;100.00;101414.00;5072794;28;20075;-81
2021/10/28 06:34:27;;;;;;;0.20;0.20;;;;;;;6.72;100.00;101410.94;5071350;28;20041;-80
2021/10/28 06:37:00;;;;;;;0.30;0.30;;;;;;;6.75;100.00;101420.47;5073672;28;20051;-80
2021/10/28 06:39:34;;;;;;;0.30;0.20;;;;;;;6.70;100.00;101412.22;5066722;28;20047;-80
2021/10/28 06:42:11;;;;;;;0.20;0.20;;;;;;;6.75;100.00;101418.59;5070959;28;20052;-81
2021/10/28 06:44:44;;;;;;;;;;;;;;;6.80;100.00;101416.00;5074995;28;20041;-81
2021/10/28 06:47:17;;;;;;;0.30;0.30;;;;;;;6.73;100.00;101415.28;5073326;28;20296;-81
2021/10/28 06:49:52;;;;;;;0.20;0.20;;;;;;;6.78;100.00;101420.84;5062768;28;20052;-81
2021/10/28 06:52:34;;;;;;;0.20;0.20;;;;;;;6.80;100.00;101415.19;5064945;28;20052;-80
2021/10/28 06:55:10;;;;;;;0.20;0.20;;;;;;;6.82;100.00;101413.03;5054905;28;20056;-80
2021/10/28 07:02:13;;;;;;;0.30;0.30;;;;;;;6.86;100.00;101411.50;5053241;28;20053;-82
2021/10/28 07:03:43;;;;;;;0.20;0.20;;;;;;;6.88;100.00;101414.81;5045738;28;20056;-84
2021/10/28 07:06:20;;;;;;;0.22;0.22;;;;;;;6.92;100.00;101413.28;5044644;28;20055;-82
2021/10/28 07:08:58;;;;;;;0.30;0.30;;;;;;;6.96;100.00;101414.47;5051839;28;20040;-82
2021/10/28 07:11:36;;;;;;;0.30;0.30;;;;;;;7.01;100.00;101410.22;5062417;28;20052;-82
2021/10/28 07:14:07;;;;;;;0.20;0.20;;;;;;;7.01;100.00;101408.31;5058827;28;20809;-81
2021/10/28 07:16:43;;;;;;;0.30;0.30;;;;;;;7.06;100.00;101410.34;5052765;28;20048;-81
2021/10/28 07:19:41;;;;;;;0.30;0.30;;;;;;;7.08;100.00;101414.41;5048404;28;20045;-83
2021/10/28 07:25:32;;;;;;;0.20;0.20;;;;;;;7.17;100.00;101414.91;5010487;28;20053;-81
2021/10/28 07:28:26;;;;;;;0.30;0.30;;;;;;;7.20;100.00;101416.31;5051198;28;20052;-83
2021/10/28 07:33:52;;;;;;;0.20;0.20;;;;;;;7.30;100.00;101416.50;5034732;28;20058;-81
2021/10/28 08:05:45;;;;;;;0.20;0.20;;;;;;;7.87;100.00;101413.00;5042840;28;20429;-83
2021/10/28 08:17:05;;;;;;;0.28;0.28;;;;;;;8.04;100.00;101401.34;5063720;28;20890;-80
2021/10/28 08:19:44;;;;;;;0.20;0.20;;;;;;;8.08;100.00;101402.50;5047117;28;20044;-82
2021/10/28 08:22:24;;;;;;;0.20;0.20;;;;;;;8.18;100.00;101399.97;5042777;28;20508;-80
2021/10/28 08:30:44;;;;;;;0.20;0.20;;;;;;;8.24;100.00;101388.13;5046551;28;20075;-81
2021/10/28 08:33:19;;;;;;;0.15;0.15;;;;;;;8.32;100.00;101389.59;5048816;28;20754;-80
2021/10/28 08:36:24;;;;;;;0.30;0.30;;;;;;;8.40;100.00;101385.66;5049826;28;20140;-83
2021/10/28 08:38:57;;;;;;;0.20;0.20;;;;;;;8.50;100.00;101383.13;5062707;28;20053;-82
2021/10/28 08:41:32;;;;;;;0.28;0.28;;;;;;;8.49;100.00;101381.47;5046007;28;20063;-82
2021/10/28 08:44:08;;;;;;;0.20;0.20;;;;;;;8.48;100.00;101375.25;5062220;28;21622;-83
2021/10/28 08:46:45;;;;;;;0.20;0.20;;;;;;;8.51;100.00;101377.44;5047601;28;20052;-82
2021/10/28 08:49:23;;;;;;;0.28;0.28;;;;;;;8.58;100.00;101373.75;5050426;28;20064;-81
2021/10/28 08:52:06;;;;;;;0.30;0.30;;;;;;;8.66;100.00;101381.47;5049447;28;21027;-81
2021/10/28 08:54:55;;;;;;;0.20;0.20;;;;;;;8.79;100.00;101380.28;5038765;28;20061;-81
2021/10/28 09:24:14;;;;;;;0.20;0.20;;;;;;;9.60;100.00;101348.91;5042254;28;20052;-84
2021/10/28 09:26:57;;;;;;;0.30;0.30;;;;;;;9.63;100.00;101345.69;5054966;28;20490;-82
2021/10/28 09:29:42;;;;;;;0.20;0.20;;;;;;;9.72;100.00;101335.16;5042294;28;20056;-84
2021/10/28 09:32:27;;;;;;;0.20;0.20;;;;;;;9.84;100.00;101343.97;5036452;28;20055;-82
2021/10/28 09:35:25;;;;;;;0.20;0.20;;;;;;;9.79;100.00;101333.03;5048983;28;20056;-83
2021/10/28 09:43:56;;;;;;;0.20;0.20;;;;;;;10.06;100.00;101345.78;5042081;28;20052;-84
2021/10/28 09:46:35;;;;;;;0.30;0.30;;;;;;;10.20;100.00;101338.81;5041925;28;20067;-83
2021/10/28 09:52:03;;;;;;;0.20;0.20;;;;;;;10.38;100.00;101334.88;5041669;28;20060;-83
2021/10/28 09:54:48;;;;;;;0.20;0.20;;;;;;;10.49;100.00;101330.31;5046256;28;20076;-80
2021/10/28 10:00:16;;;;;;;0.20;0.20;;;;;;;10.56;100.00;101328.19;5045335;28;20048;-85
2021/10/28 10:02:50;;;;;;;0.25;0.25;;;;;;;10.63;100.00;101331.47;5044705;28;20060;-80
2021/10/28 10:05:25;;;;;;;0.20;0.20;;;;;;;10.67;100.00;101332.59;5041788;28;20678;-83
2021/10/28 10:07:59;;;;;;;0.20;0.20;;;;;;;10.79;100.00;101326.13;5049564;28;20064;-85
2021/10/28 10:10:34;;;;;;;0.20;0.20;;;;;;;10.75;100.00;101330.47;5041365;28;20052;-83
2021/10/28 10:13:07;;;;;;;0.20;0.20;;;;;;;10.76;100.00;101329.38;5044287;28;20072;-82
2021/10/28 10:15:40;;;;;;;0.20;0.20;;;;;;;10.84;100.00;101335.16;5049001;28;21874;-82
2021/10/28 10:18:14;;;;;;;0.30;0.30;;;;;;;10.84;100.00;101337.88;5057124;28;20068;-82
2021/10/28 10:20:51;;;;;;;0.30;0.30;;;;;;;10.90;100.00;101333.25;5041339;28;20052;-83
2021/10/28 10:23:36;;;;;;;0.20;0.20;;;;;;;11.00;100.00;101336.00;5040587;28;20068;-83
2021/10/28 10:26:48;;;;;;;0.20;0.20;;;;;;;11.10;100.00;101339.88;5039309;28;20060;-81
2021/10/28 10:29:56;;;;;;;0.30;0.30;;;;;;;11.38;100.00;101333.16;5046184;28;20059;-82
2021/10/28 11:05:33;;;;;;;0.20;0.20;;;;;;;12.04;100.00;101279.75;5056583;28;20723;-82
2021/10/28 11:21:32;;;;;;;0.20;0.20;;;;;;;12.32;100.00;101264.69;4995679;28;20060;-81
2021/10/28 11:33:40;;;;;;;0.20;0.20;;;;;;;12.61;100.00;101244.94;5055930;28;20367;-80
2021/10/28 12:16:42;;;;;;;0.20;0.20;;;;;;;13.07;100.00;101176.38;5042390;28;20060;-83
2021/10/28 12:22:36;;;;;;;0.20;0.20;;;;;;;13.03;100.00;101160.84;5057184;28;20051;-82
2021/10/28 12:25:38;;;;;;;0.20;0.20;;;;;;;13.05;100.00;101154.00;5048702;28;21350;-80
2021/10/28 12:45:45;;;;;;;0.20;0.20;;;;;;;13.18;100.00;101127.94;5055523;28;21275;-82
2021/10/28 12:48:55;;;;;;;0.20;0.20;;;;;;;13.22;100.00;101126.25;5044922;28;20052;-82
2021/10/28 13:03:36;;;;;;;0.20;0.20;;;;;;;13.24;100.00;101102.22;5019284;28;20057;-83
2021/10/28 13:37:52;;;;;;;0.38;0.20;;;;;;;13.31;100.00;101068.25;5042637;28;20481;-81
2021/10/28 13:49:17;;;;;;;0.20;0.20;;;;;;;13.27;100.00;101043.38;5041808;28;20059;-83
2021/10/28 13:51:52;;;;;;;0.20;0.20;;;;;;;13.37;100.00;101040.59;5038441;28;20059;-85
2021/10/28 13:57:37;;;;;;;0.28;0.28;;;;;;;13.22;100.00;101032.53;5025872;28;20057;-85
2021/10/28 14:00:34;;;;;;;0.20;0.20;;;;;;;13.29;100.00;101034.94;5045614;28;20135;-82
2021/10/28 14:15:05;;;;;;;0.20;0.20;;;;;;;13.27;100.00;101027.00;5048993;28;20061;-84
2021/10/28 14:23:39;;;;;;;0.20;0.20;;;;;;;13.01;100.00;101004.56;5046353;28;20064;-84
2021/10/28 14:32:42;;;;;;;0.20;0.20;;;;;;;13.00;100.00;101017.44;5043003;28;20060;-85
2021/10/28 14:58:52;;;;;;;0.20;0.20;;;;;;;12.56;100.00;101010.97;5012614;28;20057;-85
2021/10/28 15:01:59;;;;;;;0.20;0.20;;;;;;;12.53;100.00;101016.19;5060950;28;20115;-81
2021/10/28 15:27:48;;;;;;;0.30;0.30;;;;;;;12.15;100.00;100986.72;5046077;28;20544;-84
2021/10/28 15:30:23;;;;;;;0.20;0.20;;;;;;;12.13;100.00;100988.09;5043570;28;20049;-84
2021/10/28 15:35:50;;;;;;;0.20;0.20;;;;;;;12.13;100.00;100988.91;5047318;28;20048;-86
2021/10/28 15:38:33;;;;;;;0.20;0.20;;;;;;;12.01;100.00;100988.44;5048265;28;20048;-85
2021/10/28 15:41:24;;;;;;;0.22;0.22;;;;;;;11.93;100.00;100984.34;5049963;28;20048;-82
2021/10/28 16:23:51;;;;;;;0.20;0.20;;;;;;;11.17;100.00;100967.22;5065627;28;20610;-83
2021/10/28 16:26:20;;;;;;;0.20;0.20;;;;;;;11.12;100.00;100957.16;5066863;28;20447;-83
2021/10/28 16:28:53;;;;;;;0.20;0.20;;;;;;;11.09;100.00;100960.44;5054804;28;20578;-83
2021/10/28 16:31:26;;;;;;;0.20;0.20;;;;;;;11.06;100.00;100960.97;5043707;28;20053;-82
2021/10/28 16:33:59;;;;;;;0.30;0.30;;;;;;;10.94;100.00;100961.28;5048705;28;20045;-86
2021/10/28 16:36:29;;;;;;;0.20;0.20;;;;;;;10.97;100.00;100958.03;5051450;28;20053;-85
2021/10/28 16:39:05;;;;;;;0.45;0.30;;;;;;;10.93;100.00;100951.50;5049480;28;20504;-83
2021/10/28 16:41:40;;;;;;;0.20;0.20;;;;;;;10.87;100.00;100950.69;5051451;28;20052;-82
2021/10/28 16:44:14;;;;;;;0.28;0.28;;;;;;;10.82;100.00;100953.41;5064113;28;20052;-82
2021/10/28 16:46:49;;;;;;;0.20;0.20;;;;;;;10.76;100.00;100959.97;5048884;28;20060;-84
2021/10/28 16:49:23;;;;;;;0.20;0.20;;;;;;;10.75;100.00;100955.59;5053147;28;20057;-83
2021/10/28 16:51:56;;;;;;;1.08;0.30;;;;;;;10.76;100.00;100954.53;5056257;28;20083;-84
2021/10/28 16:54:31;;;;;;;0.28;0.28;;;;;;;10.67;100.00;100953.44;5070633;28;20052;-84
2021/10/28 16:57:04;;;;;;;0.20;0.20;;;;;;;10.69;100.00;100951.28;5051468;28;20053;-82
2021/10/28 16:59:38;;;;;;;0.20;0.20;;;;;;;10.64;100.00;100951.25;5049221;28;20533;-83
2021/10/28 17:02:11;;;;;;;0.20;0.20;;;;;;;10.64;100.00;100941.19;5048501;28;20536;-83
2021/10/28 17:04:46;;;;;;;0.20;0.20;;;;;;;10.53;100.00;100947.72;5050127;28;20053;-82
2021/10/28 17:07:16;;;;;;;0.20;0.20;;;;;;;10.53;100.00;100945.81;5049204;28;20072;-83
2021/10/28 17:09:49;;;;;;;0.20;0.20;;;;;;;10.45;100.00;100942.84;5048442;28;20060;-82
2021/10/28 17:12:24;;;;;;;0.20;0.20;;;;;;;10.39;100.00;100947.47;5046555;28;20063;-82
2021/10/28 17:14:57;;;;;;;0.22;0.22;;;;;;;10.35;100.00;100939.00;5044937;28;20037;-82
2021/10/28 17:17:30;;;;;;;0.20;0.20;;;;;;;10.44;100.00;100952.06;5049650;28;21582;-82
2021/10/28 17:20:06;;;;;;;0.20;0.20;;;;;;;10.43;100.00;100948.56;5052283;28;20409;-82
2021/10/28 17:22:44;;;;;;;0.20;0.20;;;;;;;10.49;100.00;100946.63;5048333;28;20049;-80
2021/10/28 17:25:20;;;;;;;0.20;0.20;;;;;;;10.43;100.00;100958.63;5071168;28;20068;-82
2021/10/28 17:27:49;;;;;;;0.20;0.20;;;;;;;10.37;100.00;100942.28;5041587;28;20501;-83
2021/10/28 17:30:22;;;;;;;0.17;0.17;;;;;;;10.38;100.00;100956.69;5036989;28;20072;-85
2021/10/28 17:32:55;;;;;;;0.25;0.25;;;;;;;10.35;100.00;100949.91;5048027;28;20048;-84
2021/10/28 17:35:29;;;;;;;0.30;0.30;;;;;;;10.23;100.00;100943.06;5050137;28;20052;-85
2021/10/28 17:38:00;;;;;;;0.20;0.20;;;;;;;10.20;100.00;100947.97;5047022;28;20060;-83
2021/10/28 17:40:34;;;;;;;0.20;0.20;;;;;;;10.20;100.00;100944.41;5049786;28;20068;-82
2021/10/28 17:43:10;;;;;;;0.20;0.20;;;;;;;10.24;100.00;100936.56;5050127;28;20053;-83
2021/10/28 17:45:57;;;;;;;0.20;0.20;;;;;;;10.14;100.00;100949.03;5051796;28;20064;-82
2021/10/28 17:48:30;;;;;;;0.10;0.10;;;;;;;10.09;100.00;100949.03;5072272;28;20306;-82
2021/10/28 17:51:03;;;;;;;0.20;0.20;;;;;;;10.10;100.00;100937.06;5050435;28;20068;-85
2021/10/28 17:53:38;;;;;;;0.20;0.20;;;;;;;10.09;100.00;100940.06;5051509;28;20076;-82
2021/10/28 17:56:07;;;;;;;0.22;0.22;;;;;;;10.14;100.00;100938.16;5050485;28;20040;-83
2021/10/28 17:58:40;;;;;;;0.20;0.20;;;;;;;10.08;100.00;100932.97;5051419;28;20621;-84
2021/10/28 18:01:21;;;;;;;0.20;0.20;;;;;;;10.07;100.00;100934.91;5070046;28;20053;-83
2021/10/28 18:03:58;;;;;;;0.20;0.20;;;;;;;10.03;100.00;100933.81;5049683;28;20056;-83
2021/10/28 18:06:37;;;;;;;0.28;0.28;;;;;;;10.06;100.00;100930.53;5049964;28;20059;-83
2021/10/28 18:09:11;;;;;;;0.20;0.20;;;;;;;10.02;100.00;100930.25;5049289;28;20067;-82
2021/10/28 18:11:48;;;;;;;0.30;0.30;;;;;;;9.96;100.00;100930.53;5051422;28;20056;-83
2021/10/28 18:14:23;;;;;;;0.28;0.28;;;;;;;9.94;100.00;100925.34;5053307;28;20048;-80
2021/10/28 18:16:57;;;;;;;0.20;0.20;;;;;;;9.95;100.00;100924.25;5052555;28;20064;-84
2021/10/28 18:19:31;;;;;;;0.20;0.20;;;;;;;9.94;100.00;100917.19;5052817;28;20051;-81
2021/10/28 18:22:05;;;;;;;0.20;0.20;;;;;;;9.93;100.00;100918.31;5055778;28;20040;-81
2021/10/28 18:24:40;;;;;;;0.20;0.20;;;;;;;9.85;100.00;100916.91;5049883;28;20056;-82
2021/10/28 18:28:00;;;;;;;0.20;0.20;;;;;;;9.87;100.00;100928.34;5054753;28;20053;-84
2021/10/28 18:30:37;;;;;;;0.30;0.30;;;;;;;9.78;100.00;100919.09;5050218;28;20060;-80
2021/10/28 18:33:11;;;;;;;0.30;0.30;;;;;;;9.76;100.00;100918.50;5069279;28;20401;-84
2021/10/28 18:35:41;;;;;;;0.20;0.20;;;;;;;9.70;100.00;100914.97;5052715;28;20512;-84
2021/10/28 18:38:14;;;;;;;0.20;0.20;;;;;;;9.68;100.00;100913.59;5071522;28;20053;-83
2021/10/28 18:40:50;;;;;;;0.20;0.20;;;;;;;9.67;100.00;100910.09;5052431;28;20060;-81
2021/10/28 18:43:23;;;;;;;0.30;0.30;;;;;;;9.67;100.00;100901.13;5057793;28;20051;-81
2021/10/28 18:45:57;;;;;;;0.30;0.30;;;;;;;9.58;100.00;100908.97;5050324;28;20051;-82
2021/10/28 18:48:33;;;;;;;0.20;0.20;;;;;;;9.60;100.00;100903.25;5050892;28;20083;-82
2021/10/28 18:51:06;;;;;;;0.20;0.20;;;;;;;9.55;100.00;100903.25;5051692;28;20036;-82
2021/10/28 18:53:43;;;;;;;0.20;0.20;;;;;;;9.49;100.00;100892.38;5051063;28;20061;-80
2021/10/28 18:56:18;;;;;;;0.30;0.30;;;;;;;9.44;100.00;100889.63;5055724;28;21067;-82
2021/10/28 18:58:51;;;;;;;0.20;0.20;;;;;;;9.35;100.00;100883.91;5071049;28;21040;-83
2021/10/28 19:01:32;;;;;;;0.20;0.20;;;;;;;9.41;100.00;100884.75;5039231;28;20059;-84
2021/10/28 19:04:05;;;;;;;0.20;0.20;;;;;;;9.42;100.00;100886.38;5050505;28;20330;-82
2021/10/28 19:06:39;;;;;;;0.20;0.20;;;;;;;9.40;100.00;100893.16;5050272;28;20048;-81
2021/10/28 19:09:17;;;;;;;0.20;0.20;;;;;;;9.34;100.00;100874.13;5050705;28;20658;-85
2021/10/28 19:11:51;;;;;;;0.20;0.20;;;;;;;9.32;100.00;100879.03;5049760;28;20048;-81
2021/10/28 19:14:25;;;;;;;0.20;0.20;;;;;;;9.30;100.00;100874.94;5055742;28;20056;-81
2021/10/28 19:16:58;;;;;;;0.20;0.20;;;;;;;9.27;100.00;100870.03;5051632;28;20055;-82